Time;durP1;ratioP1;P1;durP2;ratioP2;P2;SDS_P1;SDS_P2;PMS_P1;PMS_P2;Temp;Humidity;BMP_temperature;BMP_pressure;BME280_temperature;BME280_humidity;BME280_pressure;Samples;Min_cycle;Max_cycle;Signal;HPM_P1;HPM_P2
2022/04/28 00:01:49;;;;;;;11.63;7.78;;;;;;;-140.79;100.00;63287.88;5004567;28;20930;-55
2022/04/28 00:04:15;;;;;;;11.15;8.32;;;;;;;-140.79;100.00;63287.88;5004824;28;20025;-53
2022/04/28 00:06:40;;;;;;;11.80;8.10;;;;;;;-140.79;100.00;63287.88;5004529;28;20030;-54
2022/04/28 00:09:06;;;;;;;11.27;7.47;;;;;;;-140.79;100.00;63287.88;5004634;28;20025;-54
2022/04/28 00:11:31;;;;;;;12.18;8.18;;;;;;;-140.79;100.00;63287.88;5004178;28;20022;-54
2022/04/28 00:13:58;;;;;;;14.07;7.97;;;;;;;-140.79;100.00;63287.88;5004193;28;20065;-55
2022/04/28 00:16:24;;;;;;;14.00;8.60;;;;;;;-140.79;100.00;63287.88;5004217;28;20036;-55
2022/04/28 00:18:49;;;;;;;13.50;8.25;;;;;;;-140.79;100.00;63287.88;5004551;28;20026;-54
2022/04/28 00:21:15;;;;;;;11.25;8.02;;;;;;;-140.79;100.00;63287.88;5004725;28;20030;-54
2022/04/28 00:23:40;;;;;;;12.55;7.82;;;;;;;-140.79;100.00;63287.88;5003989;28;20038;-54
2022/04/28 00:26:06;;;;;;;10.98;7.82;;;;;;;-140.79;100.00;63287.88;5014925;28;20045;-54
2022/04/28 00:28:31;;;;;;;12.52;7.60;;;;;;;-140.79;100.00;63287.88;5023976;28;20390;-53
2022/04/28 00:30:56;;;;;;;11.32;7.95;;;;;;;-140.79;100.00;63287.88;5023643;28;20821;-54
2022/04/28 00:33:22;;;;;;;11.38;7.63;;;;;;;-140.79;100.00;63287.88;5022747;28;20492;-54
2022/04/28 00:35:47;;;;;;;11.32;7.70;;;;;;;-140.79;100.00;63287.88;5023975;28;20115;-53
2022/04/28 00:38:14;;;;;;;13.57;8.23;;;;;;;-140.79;100.00;63287.88;5023677;28;20040;-54
2022/04/28 00:40:39;;;;;;;14.13;8.95;;;;;;;-140.79;100.00;63287.88;5023390;28;20013;-54
2022/04/28 00:43:20;;;;;;;11.25;7.70;;;;;;;-140.79;100.00;63287.88;5023807;28;20045;-54
2022/04/28 00:45:46;;;;;;;11.43;7.40;;;;;;;-140.79;100.00;63287.88;5022069;28;20030;-53
2022/04/28 00:50:57;;;;;;;10.90;7.75;;;;;;;-140.79;100.00;63287.88;5023437;28;20056;-53
2022/04/28 00:53:22;;;;;;;11.90;7.43;;;;;;;-140.79;100.00;63287.88;5023647;28;20103;-54
2022/04/28 00:55:48;;;;;;;12.68;7.95;;;;;;;-140.79;100.00;63287.88;5023270;28;20459;-54
2022/04/28 00:58:13;;;;;;;12.57;7.82;;;;;;;-140.79;100.00;63287.88;5023702;28;20413;-54
2022/04/28 01:00:41;;;;;;;11.07;7.40;;;;;;;-140.79;100.00;63287.88;5005687;28;20022;-55
2022/04/28 01:03:07;;;;;;;11.43;7.63;;;;;;;-140.79;100.00;63287.88;4989612;28;20072;-53
2022/04/28 01:05:32;;;;;;;10.38;7.68;;;;;;;-140.79;100.00;63287.88;5023380;28;20034;-54
2022/04/28 01:07:58;;;;;;;12.75;8.65;;;;;;;-140.79;100.00;63287.88;5023380;28;20033;-54
2022/04/28 01:10:23;;;;;;;12.20;8.00;;;;;;;-140.79;100.00;63287.88;5005908;28;20420;-53
2022/04/28 01:12:49;;;;;;;11.82;8.13;;;;;;;-140.79;100.00;63287.88;5023500;28;20030;-53
2022/04/28 01:15:15;;;;;;;13.15;8.10;;;;;;;-140.79;100.00;63287.88;5022801;28;20030;-53
2022/04/28 01:17:40;;;;;;;11.13;7.80;;;;;;;-140.79;100.00;63287.88;5022979;28;20026;-55
2022/04/28 01:20:06;;;;;;;12.85;8.45;;;;;;;-140.79;100.00;63287.88;5023240;28;20325;-55
2022/04/28 01:22:32;;;;;;;10.93;7.97;;;;;;;-140.79;100.00;63287.88;5023146;28;20026;-54
2022/04/28 01:25:04;;;;;;;11.95;7.88;;;;;;;-140.79;100.00;63287.88;5022980;28;20095;-55
2022/04/28 01:27:29;;;;;;;11.75;8.25;;;;;;;-140.79;100.00;63287.88;5023080;28;20025;-53
2022/04/28 01:29:55;;;;;;;11.20;7.95;;;;;;;-140.79;100.00;63287.88;4972510;28;20032;-54
2022/04/28 01:32:20;;;;;;;12.32;7.75;;;;;;;-140.79;100.00;63287.88;5023410;28;20029;-54
2022/04/28 01:34:45;;;;;;;12.02;7.85;;;;;;;-140.79;100.00;63287.88;5023377;28;20033;-53
2022/04/28 01:37:11;;;;;;;13.15;8.05;;;;;;;-140.79;100.00;63287.88;5022804;28;20025;-53
2022/04/28 01:39:36;;;;;;;11.10;7.22;;;;;;;-140.79;100.00;63287.88;5023394;28;20032;-54
2022/04/28 01:42:02;;;;;;;12.57;8.05;;;;;;;-140.79;100.00;63287.88;5023413;28;20026;-54
2022/04/28 01:44:27;;;;;;;11.65;7.88;;;;;;;-140.79;100.00;63287.88;5023029;28;20033;-54
2022/04/28 01:46:53;;;;;;;12.25;7.55;;;;;;;-140.79;100.00;63287.88;5022806;28;20515;-52
2022/04/28 01:49:18;;;;;;;11.25;7.85;;;;;;;-140.79;100.00;63287.88;5023126;28;20017;-54
2022/04/28 01:57:12;;;;;;;11.60;8.07;;;;;;;-140.79;100.00;63287.88;5023060;28;20091;-53
2022/04/28 01:59:37;;;;;;;11.68;8.10;;;;;;;-140.79;100.00;63287.88;5022756;28;20017;-54
2022/04/28 02:02:03;;;;;;;12.43;7.72;;;;;;;-140.79;100.00;63287.88;5022986;28;20394;-54
2022/04/28 02:04:28;;;;;;;11.52;7.82;;;;;;;-140.79;100.00;63287.88;5023100;28;20562;-53
2022/04/28 02:06:53;;;;;;;12.77;8.00;;;;;;;-140.79;100.00;63287.88;5022756;28;20479;-53
2022/04/28 02:09:19;;;;;;;11.57;7.82;;;;;;;-140.79;100.00;63287.88;5025224;28;20017;-53
2022/04/28 02:11:44;;;;;;;12.38;8.02;;;;;;;-140.79;100.00;63287.88;5026424;28;20025;-52
2022/04/28 02:14:10;;;;;;;13.45;8.52;;;;;;;-140.79;100.00;63287.88;5026045;28;20017;-54
2022/04/28 02:16:35;;;;;;;14.18;8.65;;;;;;;-140.79;100.00;63287.88;5026179;28;20036;-53
2022/04/28 02:19:01;;;;;;;12.10;7.72;;;;;;;-140.79;100.00;63287.88;5026370;28;20037;-54
2022/04/28 02:21:27;;;;;;;12.05;7.60;;;;;;;-140.79;100.00;63287.88;5025795;28;20048;-54
2022/04/28 02:23:52;;;;;;;11.43;7.55;;;;;;;-140.79;100.00;63287.88;5025282;28;20045;-53
2022/04/28 02:26:17;;;;;;;13.52;8.10;;;;;;;-140.79;100.00;63287.88;5025820;28;20041;-51
2022/04/28 02:28:43;;;;;;;11.98;7.65;;;;;;;-140.79;100.00;63287.88;5025923;28;20316;-54
2022/04/28 02:31:08;;;;;;;13.25;7.93;;;;;;;-140.79;100.00;63287.88;5025882;28;20555;-53
2022/04/28 02:33:34;;;;;;;13.25;8.18;;;;;;;-140.79;100.00;63287.88;5025534;28;20444;-54
2022/04/28 02:35:59;;;;;;;11.13;7.47;;;;;;;-140.79;100.00;63287.88;5026085;28;20030;-54
2022/04/28 02:38:24;;;;;;;14.80;7.97;;;;;;;-140.79;100.00;63287.88;5025918;28;20021;-53
2022/04/28 02:40:50;;;;;;;12.13;7.50;;;;;;;-140.79;100.00;63287.88;5025931;28;20060;-53
2022/04/28 02:43:15;;;;;;;11.15;7.68;;;;;;;-140.79;100.00;63287.88;5025129;28;20080;-54
2022/04/28 02:45:41;;;;;;;10.55;6.90;;;;;;;-140.79;100.00;63287.88;5025186;28;20492;-54
2022/04/28 02:48:06;;;;;;;10.95;7.43;;;;;;;-140.79;100.00;63287.88;5025782;28;20041;-54
2022/04/28 02:50:32;;;;;;;12.18;7.47;;;;;;;-140.79;100.00;63287.88;5025608;28;20554;-53
2022/04/28 02:52:57;;;;;;;11.32;7.13;;;;;;;-140.79;100.00;63287.88;5025015;28;20160;-54
2022/04/28 02:55:23;;;;;;;11.35;7.55;;;;;;;-140.79;100.00;63287.88;5007681;28;20037;-54
2022/04/28 02:57:48;;;;;;;11.68;7.78;;;;;;;-140.79;100.00;63287.88;5025493;28;20052;-54
2022/04/28 03:00:14;;;;;;;11.05;7.38;;;;;;;-140.79;100.00;63287.88;5025255;28;20091;-52
2022/04/28 03:02:39;;;;;;;10.68;6.60;;;;;;;-140.79;100.00;63287.88;5024632;28;20034;-52
2022/04/28 03:05:05;;;;;;;11.75;7.30;;;;;;;-140.79;100.00;63287.88;5025381;28;20025;-52
2022/04/28 03:12:59;;;;;;;9.13;6.53;;;;;;;-140.79;100.00;63287.88;5024442;28;20444;-52
2022/04/28 03:15:25;;;;;;;11.00;7.35;;;;;;;-140.79;100.00;63287.88;5025108;28;20029;-53
2022/04/28 03:17:50;;;;;;;9.75;6.63;;;;;;;-140.79;100.00;63287.88;5025004;28;20893;-53
2022/04/28 03:20:16;;;;;;;10.10;6.40;;;;;;;-140.79;100.00;63287.88;5007258;28;20116;-52
2022/04/28 03:22:43;;;;;;;10.73;7.05;;;;;;;-140.79;100.00;63287.88;5007366;28;20129;-53
2022/04/28 03:25:08;;;;;;;10.07;6.32;;;;;;;-140.79;100.00;63287.88;5024288;28;20507;-53
2022/04/28 03:27:34;;;;;;;10.18;6.18;;;;;;;-140.79;100.00;63287.88;5024322;28;20029;-53
2022/04/28 03:29:59;;;;;;;8.57;5.97;;;;;;;-140.79;100.00;63287.88;5009138;28;20017;-53
2022/04/28 03:32:25;;;;;;;8.98;5.47;;;;;;;-140.79;100.00;63287.88;5024728;28;20068;-54
2022/04/28 03:34:50;;;;;;;9.60;5.78;;;;;;;-140.79;100.00;63287.88;5022773;28;20033;-53
2022/04/28 03:37:15;;;;;;;8.32;5.30;;;;;;;-140.79;100.00;63287.88;5031332;28;20033;-53
2022/04/28 03:39:41;;;;;;;8.63;5.75;;;;;;;-140.79;100.00;63287.88;5029619;28;20048;-53
2022/04/28 03:42:07;;;;;;;8.10;5.25;;;;;;;-140.79;100.00;63287.88;5024376;28;20444;-53
2022/04/28 03:44:34;;;;;;;9.52;5.40;;;;;;;-140.79;100.00;63287.88;5021586;28;20030;-53
2022/04/28 03:47:02;;;;;;;8.20;5.40;;;;;;;-140.79;100.00;63287.88;5019107;28;20109;-53
2022/04/28 03:49:27;;;;;;;8.20;5.13;;;;;;;-140.79;100.00;63287.88;5025334;28;20025;-53
2022/04/28 03:51:52;;;;;;;9.02;4.88;;;;;;;-140.79;100.00;63287.88;5022007;28;20044;-53
2022/04/28 03:54:18;;;;;;;7.18;4.85;;;;;;;-140.79;100.00;63287.88;5022246;28;20022;-53
2022/04/28 03:56:43;;;;;;;8.00;4.78;;;;;;;-140.79;100.00;63287.88;5005187;28;20037;-53
2022/04/28 03:59:09;;;;;;;7.22;4.47;;;;;;;-140.79;100.00;63287.88;5026494;28;20706;-53
2022/04/28 04:01:35;;;;;;;6.43;4.35;;;;;;;-140.79;100.00;63287.88;5024434;28;20606;-53
2022/04/28 04:04:00;;;;;;;6.72;4.10;;;;;;;-140.79;100.00;63287.88;5022080;28;20036;-54
2022/04/28 04:06:26;;;;;;;6.70;4.20;;;;;;;-140.79;100.00;63287.88;5022982;28;20413;-53
2022/04/28 04:08:52;;;;;;;6.35;4.60;;;;;;;-140.79;100.00;63287.88;5022118;28;20070;-54
2022/04/28 04:11:17;;;;;;;6.97;4.45;;;;;;;-140.79;100.00;63287.88;5003908;28;20040;-52
2022/04/28 04:13:43;;;;;;;5.70;4.15;;;;;;;-140.79;100.00;63287.88;5022476;28;20110;-53
2022/04/28 04:16:10;;;;;;;6.32;4.50;;;;;;;-140.79;100.00;63287.88;5022365;28;20021;-52
2022/04/28 04:18:35;;;;;;;6.05;4.07;;;;;;;-140.79;100.00;63287.88;5023625;28;20021;-52
2022/04/28 04:21:01;;;;;;;6.32;4.07;;;;;;;-140.79;100.00;63287.88;5022764;28;20481;-54
2022/04/28 04:23:26;;;;;;;6.43;4.28;;;;;;;-140.79;100.00;63287.88;5022946;28;20044;-53
2022/04/28 04:25:52;;;;;;;6.55;3.70;;;;;;;-140.79;100.00;63287.88;5021549;28;20049;-55
2022/04/28 04:28:17;;;;;;;5.43;3.80;;;;;;;-140.79;100.00;63287.88;5021388;28;20026;-54
2022/04/28 04:33:27;;;;;;;6.03;3.75;;;;;;;-140.79;100.00;63287.88;5021659;28;20048;-54
2022/04/28 04:35:53;;;;;;;5.57;3.83;;;;;;;-140.79;100.00;63287.88;5025293;28;20502;-53
2022/04/28 04:38:19;;;;;;;5.15;3.50;;;;;;;-140.79;100.00;63287.88;5023060;28;20029;-54
2022/04/28 04:40:44;;;;;;;7.00;3.70;;;;;;;-140.79;100.00;63287.88;5023815;28;20541;-55
2022/04/28 04:43:13;;;;;;;6.03;4.00;;;;;;;-140.79;100.00;63287.88;5022713;28;20830;-52
2022/04/28 04:45:44;;;;;;;6.27;3.90;;;;;;;-140.79;100.00;63287.88;5021597;28;20033;-52
2022/04/28 04:48:10;;;;;;;5.70;3.70;;;;;;;-140.79;100.00;63287.88;5023149;28;20168;-53
2022/04/28 04:50:36;;;;;;;5.30;3.70;;;;;;;-140.79;100.00;63287.88;5022599;28;20943;-52
2022/04/28 04:53:03;;;;;;;5.28;3.72;;;;;;;-140.79;100.00;63287.88;5022514;28;20033;-52
2022/04/28 04:55:28;;;;;;;4.90;3.60;;;;;;;-140.79;100.00;63287.88;5023043;28;20028;-51
2022/04/28 04:57:54;;;;;;;4.35;3.35;;;;;;;-140.79;100.00;63287.88;5027691;28;20014;-51
2022/04/28 05:00:19;;;;;;;5.22;3.58;;;;;;;-140.79;100.00;63287.88;5021953;28;20083;-54
2022/04/28 05:02:44;;;;;;;5.80;4.10;;;;;;;-140.79;100.00;63287.88;5025162;28;20017;-52
2022/04/28 05:05:10;;;;;;;4.40;3.40;;;;;;;-140.79;100.00;63287.88;5022603;28;20029;-52
2022/04/28 05:07:35;;;;;;;5.38;3.85;;;;;;;-140.79;100.00;63287.88;5022710;28;20465;-53
2022/04/28 05:10:01;;;;;;;4.85;3.55;;;;;;;-140.79;100.00;63287.88;5022727;28;20025;-53
2022/04/28 05:12:26;;;;;;;5.28;3.58;;;;;;;-140.79;100.00;63287.88;5023114;28;20037;-53
2022/04/28 05:14:52;;;;;;;4.95;3.10;;;;;;;-140.79;100.00;63287.88;5022135;28;20033;-54
2022/04/28 05:17:17;;;;;;;6.07;2.83;;;;;;;-140.79;100.00;63287.88;5025535;28;20104;-54
2022/04/28 05:19:43;;;;;;;5.18;3.13;;;;;;;-140.79;100.00;63287.88;5023021;28;20025;-51
2022/04/28 05:22:08;;;;;;;4.22;3.10;;;;;;;-140.79;100.00;63287.88;5023275;28;20455;-53
2022/04/28 05:24:33;;;;;;;4.80;2.95;;;;;;;-140.79;100.00;63287.88;5022361;28;20033;-52
2022/04/28 05:26:59;;;;;;;4.43;3.30;;;;;;;-140.79;100.00;63287.88;5022500;28;20049;-54
2022/04/28 05:29:24;;;;;;;4.13;2.70;;;;;;;-140.79;100.00;63287.88;5022515;28;20025;-53
2022/04/28 05:31:50;;;;;;;4.47;3.00;;;;;;;-140.79;100.00;63287.88;5020705;28;20046;-52
2022/04/28 05:34:15;;;;;;;3.75;2.67;;;;;;;-140.79;100.00;63287.88;5021974;28;20017;-53
2022/04/28 05:36:41;;;;;;;4.75;2.70;;;;;;;-140.79;100.00;63287.88;5023077;28;20036;-53
2022/04/28 05:39:06;;;;;;;4.28;2.42;;;;;;;-140.79;100.00;63287.88;5004148;28;20057;-52
2022/04/28 05:41:32;;;;;;;3.47;2.40;;;;;;;-140.79;100.00;63287.88;5020533;28;20027;-53
2022/04/28 05:46:41;;;;;;;4.25;2.80;;;;;;;-140.79;100.00;63287.88;5024566;28;20060;-53
2022/04/28 05:49:07;;;;;;;3.72;2.28;;;;;;;-140.79;100.00;63287.88;5008259;28;20420;-53
2022/04/28 05:51:32;;;;;;;3.80;2.45;;;;;;;-140.79;100.00;63287.88;5007502;28;20032;-53
2022/04/28 05:53:58;;;;;;;3.20;2.25;;;;;;;-140.79;100.00;63287.88;5028100;28;20033;-52
2022/04/28 05:56:24;;;;;;;3.30;2.53;;;;;;;-140.79;100.00;63287.88;5027715;28;20025;-53
2022/04/28 05:58:49;;;;;;;3.78;2.60;;;;;;;-140.79;100.00;63287.88;5024738;28;20021;-54
2022/04/28 06:01:14;;;;;;;3.10;2.08;;;;;;;-140.79;100.00;63287.88;5024933;28;20025;-53
2022/04/28 06:03:41;;;;;;;2.97;1.98;;;;;;;-140.79;100.00;63287.88;5025050;28;20029;-53
2022/04/28 06:06:09;;;;;;;4.00;2.28;;;;;;;-140.79;100.00;63287.88;5025493;28;20033;-53
2022/04/28 06:08:35;;;;;;;3.55;2.08;;;;;;;-140.79;100.00;63287.88;5025255;28;20029;-55
2022/04/28 06:11:01;;;;;;;3.00;2.13;;;;;;;-140.79;100.00;63287.88;5007546;28;20143;-53
2022/04/28 06:13:27;;;;;;;3.38;2.30;;;;;;;-140.79;100.00;63287.88;5008885;28;20074;-54
2022/04/28 06:15:52;;;;;;;5.03;2.72;;;;;;;-140.79;100.00;63287.88;5024439;28;20029;-55
2022/04/28 06:18:18;;;;;;;4.10;2.42;;;;;;;-140.79;100.00;63287.88;5025476;28;20479;-52
2022/04/28 06:20:44;;;;;;;3.78;2.00;;;;;;;-140.79;100.00;63287.88;5024326;28;20038;-54
2022/04/28 06:23:11;;;;;;;4.93;2.88;;;;;;;-140.79;100.00;63287.88;5026597;28;20029;-55
2022/04/28 06:25:36;;;;;;;6.03;2.40;;;;;;;-140.79;100.00;63287.88;5025801;28;20532;-55
2022/04/28 06:28:02;;;;;;;2.50;1.25;;;;;;;-140.79;100.00;63287.88;5024953;28;20025;-54
2022/04/28 06:30:27;;;;;;;4.03;2.05;;;;;;;-140.79;100.00;63287.88;5044692;28;20013;-55
2022/04/28 06:32:52;;;;;;;4.13;2.35;;;;;;;-140.79;100.00;63287.88;5045910;28;20525;-53
2022/04/28 06:35:18;;;;;;;4.15;2.40;;;;;;;-140.79;100.00;63287.88;5043511;28;20020;-53
2022/04/28 06:37:43;;;;;;;4.32;2.80;;;;;;;-140.79;100.00;63287.88;5044421;28;20024;-53
2022/04/28 06:40:11;;;;;;;6.13;2.20;;;;;;;-140.79;100.00;63287.88;5044834;28;20025;-52
2022/04/28 06:42:39;;;;;;;6.60;2.35;;;;;;;-140.79;100.00;63287.88;5045068;28;20016;-53
2022/04/28 06:45:06;;;;;;;4.30;2.35;;;;;;;-140.79;100.00;63287.88;5044610;28;20060;-54
2022/04/28 06:47:31;;;;;;;4.10;2.25;;;;;;;-140.79;100.00;63287.88;5026518;28;20070;-53
2022/04/28 06:49:56;;;;;;;6.97;2.30;;;;;;;-140.79;100.00;63287.88;5045357;28;20021;-53
2022/04/28 06:52:22;;;;;;;6.47;2.60;;;;;;;-140.79;100.00;63287.88;5045471;28;20033;-53
2022/04/28 06:54:47;;;;;;;3.95;2.10;;;;;;;-140.79;100.00;63287.88;5044938;28;20020;-53
2022/04/28 06:57:13;;;;;;;6.10;2.40;;;;;;;-140.79;100.00;63287.88;5045652;28;20040;-53
2022/04/28 06:59:38;;;;;;;3.30;2.20;;;;;;;-140.79;100.00;63287.88;5045072;28;20029;-53
2022/04/28 07:02:04;;;;;;;4.18;2.60;;;;;;;-140.79;100.00;63287.88;5026279;28;20032;-53
2022/04/28 07:04:31;;;;;;;4.68;2.15;;;;;;;-140.79;100.00;63287.88;5045109;28;20037;-54
2022/04/28 07:06:56;;;;;;;4.80;2.33;;;;;;;-140.79;100.00;63287.88;5044919;28;20874;-53
2022/04/28 07:09:21;;;;;;;6.10;2.53;;;;;;;-140.79;100.00;63287.88;5045782;28;20024;-53
2022/04/28 07:11:47;;;;;;;4.85;2.20;;;;;;;-140.79;100.00;63287.88;5045569;28;20035;-53
2022/04/28 07:14:13;;;;;;;4.13;2.20;;;;;;;-140.79;100.00;63287.88;5044980;28;20025;-53
2022/04/28 07:16:38;;;;;;;4.32;2.33;;;;;;;-140.79;100.00;63287.88;5044674;28;20123;-53
2022/04/28 07:19:06;;;;;;;5.32;2.60;;;;;;;-140.79;100.00;63287.88;5027596;28;20031;-53
2022/04/28 07:21:31;;;;;;;5.07;2.05;;;;;;;-140.79;100.00;63287.88;5045200;28;20115;-54
2022/04/28 07:23:57;;;;;;;5.15;2.42;;;;;;;-140.79;100.00;63287.88;5045005;28;20409;-54
2022/04/28 07:26:22;;;;;;;4.55;2.38;;;;;;;-140.79;100.00;63287.88;5044933;28;20049;-53
2022/04/28 07:28:47;;;;;;;3.40;2.30;;;;;;;-140.79;100.00;63287.88;5045311;28;20368;-53
2022/04/28 07:31:13;;;;;;;4.95;2.38;;;;;;;-140.79;100.00;63287.88;5044809;28;20033;-52
2022/04/28 07:33:38;;;;;;;3.72;2.28;;;;;;;-140.79;100.00;63287.88;5045121;28;20462;-54
2022/04/28 07:36:04;;;;;;;4.57;2.33;;;;;;;-140.79;100.00;63287.88;5044891;28;20025;-54
2022/04/28 07:38:30;;;;;;;3.33;1.85;;;;;;;-140.79;100.00;63287.88;5044773;28;20024;-53
2022/04/28 07:40:55;;;;;;;4.85;2.40;;;;;;;-140.79;100.00;63287.88;5044870;28;20083;-54
2022/04/28 07:43:21;;;;;;;3.42;2.08;;;;;;;-140.79;100.00;63287.88;5044738;28;20024;-55
2022/04/28 07:45:47;;;;;;;4.80;2.30;;;;;;;-140.79;100.00;63287.88;5043952;28;20029;-53
2022/04/28 07:48:13;;;;;;;3.50;1.90;;;;;;;-140.79;100.00;63287.88;5044497;28;20481;-54
2022/04/28 07:50:38;;;;;;;2.47;1.80;;;;;;;-140.79;100.00;63287.88;5044578;28;20032;-54
2022/04/28 07:53:04;;;;;;;3.22;1.80;;;;;;;-140.79;100.00;63287.88;5044711;28;20412;-53
2022/04/28 07:55:29;;;;;;;3.55;1.98;;;;;;;-140.79;100.00;63287.88;5044642;28;20526;-53
2022/04/28 07:57:55;;;;;;;3.42;2.00;;;;;;;-140.79;100.00;63287.88;5044564;28;20120;-55
2022/04/28 08:00:20;;;;;;;4.57;2.30;;;;;;;-140.79;100.00;63287.88;5025842;28;20087;-53
2022/04/28 08:02:45;;;;;;;4.53;2.50;;;;;;;-140.79;100.00;63287.88;5044211;28;20045;-53
2022/04/28 08:05:11;;;;;;;4.15;2.67;;;;;;;-140.79;100.00;63287.88;5044290;28;20021;-54
2022/04/28 08:07:36;;;;;;;4.45;2.45;;;;;;;-140.79;100.00;63287.88;5044357;28;20033;-54
2022/04/28 08:10:03;;;;;;;3.75;2.95;;;;;;;-140.79;100.00;63287.88;5043993;28;20400;-53
2022/04/28 08:12:29;;;;;;;6.35;2.92;;;;;;;-140.79;100.00;63287.88;5043166;28;20031;-54
2022/04/28 08:14:54;;;;;;;4.95;2.78;;;;;;;-140.79;100.00;63287.88;5043998;28;20021;-55
2022/04/28 08:17:20;;;;;;;4.63;3.08;;;;;;;-140.79;100.00;63287.88;5044107;28;20082;-53
2022/04/28 08:19:45;;;;;;;4.70;2.83;;;;;;;-140.79;100.00;63287.88;5044287;28;20083;-53
2022/04/28 08:22:11;;;;;;;5.43;3.00;;;;;;;-140.79;100.00;63287.88;5044145;28;20029;-54
2022/04/28 08:24:36;;;;;;;4.72;3.33;;;;;;;-140.79;100.00;63287.88;5044201;28;20052;-53
2022/04/28 08:27:02;;;;;;;8.00;3.50;;;;;;;-140.79;100.00;63287.88;5044101;28;20068;-54
2022/04/28 08:29:28;;;;;;;4.80;3.20;;;;;;;-140.79;100.00;63287.88;5043877;28;20021;-53
2022/04/28 08:31:53;;;;;;;5.32;2.90;;;;;;;-140.79;100.00;63287.88;5043788;28;20027;-54
2022/04/28 08:34:21;;;;;;;6.70;3.33;;;;;;;-140.79;100.00;63287.88;5044250;28;20049;-53
2022/04/28 08:36:47;;;;;;;4.93;3.58;;;;;;;-140.79;100.00;63287.88;5043684;28;20488;-54
2022/04/28 08:39:13;;;;;;;5.70;3.00;;;;;;;-140.79;100.00;63287.88;5043862;28;20171;-53
2022/04/28 08:41:46;;;;;;;6.57;3.35;;;;;;;-140.79;100.00;63287.88;5044035;28;20029;-53
2022/04/28 08:44:17;;;;;;;6.55;3.85;;;;;;;-140.79;100.00;63287.88;5043376;28;20036;-54
2022/04/28 08:46:52;;;;;;;6.10;3.28;;;;;;;-140.79;100.00;63287.88;5043574;28;20024;-54
2022/04/28 08:49:20;;;;;;;4.95;3.25;;;;;;;-140.79;100.00;63287.88;5044008;28;20021;-54
2022/04/28 08:51:46;;;;;;;6.03;3.95;;;;;;;-140.79;100.00;63287.88;5043477;28;20036;-53
2022/04/28 08:54:12;;;;;;;5.53;3.22;;;;;;;-140.79;100.00;63287.88;5043428;28;20029;-54
2022/04/28 08:56:40;;;;;;;5.60;3.47;;;;;;;-140.79;100.00;63287.88;5043918;28;20025;-53
2022/04/28 08:59:06;;;;;;;6.05;4.00;;;;;;;-140.79;100.00;63287.88;5043627;28;20029;-53
2022/04/28 09:01:32;;;;;;;7.55;3.80;;;;;;;-140.79;100.00;63287.88;5042283;28;20039;-53
2022/04/28 09:04:00;;;;;;;6.05;3.35;;;;;;;-140.79;100.00;63287.88;5025923;28;20063;-53
2022/04/28 09:06:30;;;;;;;5.32;3.47;;;;;;;-140.79;100.00;63287.88;5043645;28;20029;-54
2022/04/28 09:08:57;;;;;;;6.75;3.50;;;;;;;-140.79;100.00;63287.88;5025368;28;20104;-53
2022/04/28 09:11:24;;;;;;;5.22;3.50;;;;;;;-140.79;100.00;63287.88;5042391;28;20103;-52
2022/04/28 09:14:09;;;;;;;4.95;3.92;;;;;;;-140.79;100.00;63287.88;5043637;28;20021;-52
2022/04/28 09:16:46;;;;;;;5.63;3.53;;;;;;;-140.79;100.00;63287.88;5043320;28;20319;-52
2022/04/28 09:19:45;;;;;;;5.93;3.33;;;;;;;-140.79;100.00;63287.88;5047093;28;20037;-53
2022/04/28 09:22:13;;;;;;;6.47;3.70;;;;;;;-140.79;100.00;63287.88;5003533;28;20051;-52
2022/04/28 09:24:40;;;;;;;6.68;3.47;;;;;;;-140.79;100.00;63287.88;5046980;28;20727;-53
2022/04/28 09:27:06;;;;;;;5.38;3.72;;;;;;;-140.79;100.00;63287.88;5046135;28;20057;-54
2022/04/28 09:29:39;;;;;;;7.03;4.20;;;;;;;-140.79;100.00;63287.88;5028766;28;20037;-53
2022/04/28 09:32:15;;;;;;;5.95;3.88;;;;;;;-140.79;100.00;63287.88;5047277;28;20709;-53
2022/04/28 09:34:48;;;;;;;5.80;3.30;;;;;;;-140.79;100.00;63287.88;5047453;28;20148;-53
2022/04/28 09:37:21;;;;;;;5.43;3.80;;;;;;;-140.79;100.00;63287.88;5046477;28;20029;-54
2022/04/28 09:42:39;;;;;;;5.72;3.55;;;;;;;-140.79;100.00;63287.88;5047454;28;20051;-53
2022/04/28 09:45:05;;;;;;;5.05;3.70;;;;;;;-140.79;100.00;63287.88;5046909;28;20063;-52
2022/04/28 09:47:31;;;;;;;4.93;3.38;;;;;;;-140.79;100.00;63287.88;5046680;28;20856;-52
2022/04/28 09:49:56;;;;;;;6.20;3.67;;;;;;;-140.79;100.00;63287.88;5047079;28;20032;-54
2022/04/28 09:52:29;;;;;;;6.53;3.50;;;;;;;-140.79;100.00;63287.88;5046746;28;20443;-53
2022/04/28 09:54:57;;;;;;;5.78;3.55;;;;;;;-140.79;100.00;63287.88;5046790;28;20147;-52
2022/04/28 09:57:22;;;;;;;5.22;3.40;;;;;;;-140.79;100.00;63287.88;5046730;28;20670;-52
2022/04/28 09:59:53;;;;;;;5.60;3.90;;;;;;;-140.79;100.00;63287.88;5046651;28;20036;-52
2022/04/28 10:02:19;;;;;;;7.55;3.58;;;;;;;-140.79;100.00;63287.88;5046498;28;20051;-52
2022/04/28 10:04:45;;;;;;;8.25;4.13;;;;;;;-140.79;100.00;63287.88;5028611;28;20413;-52
2022/04/28 10:07:13;;;;;;;10.88;3.60;;;;;;;-140.79;100.00;63287.88;5046545;28;20028;-54
2022/04/28 10:09:40;;;;;;;9.85;3.72;;;;;;;-140.79;100.00;63287.88;5046021;28;20017;-53
2022/04/28 10:12:06;;;;;;;12.25;3.80;;;;;;;-140.79;100.00;63287.88;5044613;28;20025;-52
2022/04/28 10:14:31;;;;;;;11.57;4.20;;;;;;;-140.79;100.00;63287.88;5045931;28;20017;-53
2022/04/28 10:16:57;;;;;;;9.13;3.78;;;;;;;-140.79;100.00;63287.88;5028028;28;20491;-53
2022/04/28 10:19:34;;;;;;;8.10;3.60;;;;;;;-140.79;100.00;63287.88;5028904;28;20075;-53
2022/04/28 10:22:03;;;;;;;11.65;3.83;;;;;;;-140.79;100.00;63287.88;5027814;28;20102;-53
2022/04/28 10:33:00;;;;;;;8.98;4.00;;;;;;;-140.79;100.00;63287.88;5044356;28;20163;-54
2022/04/28 10:35:45;;;;;;;9.80;3.83;;;;;;;-140.79;100.00;63287.88;5044024;28;20025;-53
2022/04/28 10:38:22;;;;;;;9.32;3.88;;;;;;;-140.79;100.00;63287.88;5043616;28;20052;-54
2022/04/28 10:40:59;;;;;;;12.77;4.03;;;;;;;-140.79;100.00;63287.88;5044956;28;20428;-54
2022/04/28 10:43:43;;;;;;;9.30;3.90;;;;;;;-140.79;100.00;63287.88;5046835;28;20060;-53
2022/04/28 10:46:08;;;;;;;8.95;4.10;;;;;;;-140.79;100.00;63287.88;5046297;28;20507;-53
2022/04/28 10:48:44;;;;;;;11.10;4.28;;;;;;;-140.79;100.00;63287.88;5046161;28;20031;-53
2022/04/28 10:51:20;;;;;;;11.43;4.63;;;;;;;-140.79;100.00;63287.88;5045978;28;20078;-53
2022/04/28 10:54:11;;;;;;;9.18;4.15;;;;;;;-140.79;100.00;63287.88;5044479;28;20017;-54
2022/04/28 10:56:40;;;;;;;6.82;3.92;;;;;;;-140.79;100.00;63287.88;5045275;28;20033;-52
2022/04/28 10:59:29;;;;;;;6.10;3.78;;;;;;;-140.79;100.00;63287.88;5045373;28;20086;-54
2022/04/28 11:01:55;;;;;;;11.43;4.20;;;;;;;-140.79;100.00;63287.88;5045485;28;20086;-53
2022/04/28 11:04:22;;;;;;;7.40;4.03;;;;;;;-140.79;100.00;63287.88;5045325;28;20028;-54
2022/04/28 11:06:51;;;;;;;7.80;3.70;;;;;;;-140.79;100.00;63287.88;5045521;28;20055;-54
2022/04/28 11:09:17;;;;;;;6.60;3.45;;;;;;;-140.79;100.00;63287.88;5045732;28;20116;-53
2022/04/28 11:11:47;;;;;;;7.93;4.13;;;;;;;-140.79;100.00;63287.88;5011209;28;20044;-53
2022/04/28 11:14:15;;;;;;;7.55;3.63;;;;;;;-140.79;100.00;63287.88;5045079;28;20033;-54
2022/04/28 11:16:41;;;;;;;9.80;4.10;;;;;;;-140.79;100.00;63287.88;5044397;28;20021;-54
2022/04/28 11:19:07;;;;;;;8.25;3.83;;;;;;;-140.79;100.00;63287.88;5045543;28;20078;-55
2022/04/28 11:21:33;;;;;;;11.52;3.88;;;;;;;-140.79;100.00;63287.88;5037281;28;20087;-54
2022/04/28 11:23:59;;;;;;;19.73;4.65;;;;;;;-140.79;100.00;63287.88;5023428;28;20441;-52
2022/04/28 11:26:27;;;;;;;10.80;3.92;;;;;;;-140.79;100.00;63287.88;5023954;28;20049;-52
2022/04/28 11:28:52;;;;;;;13.38;4.68;;;;;;;-140.79;100.00;63287.88;5023671;28;20022;-52
2022/04/28 11:31:18;;;;;;;10.82;4.22;;;;;;;-140.79;100.00;63287.88;5023258;28;20045;-53
2022/04/28 11:33:48;;;;;;;12.30;4.68;;;;;;;-140.79;100.00;63287.88;5024074;28;20036;-53
2022/04/28 11:36:27;;;;;;;9.65;4.22;;;;;;;-140.79;100.00;63287.88;5024371;28;20033;-52